»·PEaware :: N5413E L88-KSBP

N5413E :: L88-KSBP

FLIGHT INFORMATION

Flight Status: Arrived
Operator: Privately registered:
United States
More flights under this callsign
Pilot: Rob F. (20595)
Aircraft: CESSNA 172 SKYHAWK
(C172)
More flights by this aircraft type
Origin: L88 New Cuyama
United States
Destination: KSBP San Luis Co Regl
United States
More flights between these airports :: More routes between these airports
Route: DCT
File this flight plan on PilotEdge
Remarks: For CAT 2 rating
Altitude:
(Current/Filed)
6,500ft
Speed:
(Current/Filed)
110kts
Departed: 28-Sep-18 06:21 PM
Arrived: 28-Sep-18 06:50 PM
Distance/Time
Traveled:
50nm/0:29
Distance/Time
To Go:
Arrived

Flight Plot

Page will automatically refresh every two minutes.


Map Options




Map Legend


Flown Route
Filed Route
Departure Airport
Arrival Airport
Navaid (VOR, NDB)
Fix

Horizontal Profiles

Position Reports

Time Latitude Longitude Heading Altitude Ground
Speed
28-Sep-18 18:10 35.238478 -120.636928 89 215ft 0kts
28-Sep-18 18:11 35.238478 -120.636928 89 215ft 0kts
28-Sep-18 18:12 35.238478 -120.636928 89 215ft 0kts
28-Sep-18 18:13 35.238478 -120.636928 89 215ft 0kts
28-Sep-18 18:14 35.238478 -120.636928 89 215ft 0kts
28-Sep-18 18:15 35.238478 -120.636928 89 215ft 0kts
28-Sep-18 18:16 35.238478 -120.636928 89 215ft 0kts
28-Sep-18 18:17 34.942916 -119.690682 205 2206ft 0kts
28-Sep-18 18:18 34.942915 -119.690683 205 2206ft 0kts
28-Sep-18 18:19 34.942912 -119.690685 205 2206ft 0kts
28-Sep-18 18:20 34.942908 -119.690686 205 2206ft 0kts
28-Sep-18 18:21 34.942905 -119.690688 206 2206ft 0kts
28-Sep-18 18:22 34.942902 -119.690690 206 2206ft 0kts
28-Sep-18 18:23 34.941750 -119.689911 116 2206ft 43kts
28-Sep-18 18:24 34.933926 -119.668575 149 2722ft 79kts
28-Sep-18 18:25 34.934350 -119.684417 308 3528ft 68kts
28-Sep-18 18:26 34.941033 -119.703199 173 3926ft 70kts
28-Sep-18 18:27 34.944665 -119.723468 310 4431ft 100kts
28-Sep-18 18:28 34.958324 -119.754357 288 5119ft 98kts
28-Sep-18 18:29 34.967676 -119.783273 286 5894ft 91kts
28-Sep-18 18:30 34.977535 -119.814286 286 6492ft 111kts
28-Sep-18 18:31 34.989747 -119.852527 287 6505ft 124kts
28-Sep-18 18:32 35.002271 -119.891987 287 6514ft 126kts
28-Sep-18 18:33 35.015145 -119.932650 287 6508ft 134kts
28-Sep-18 18:34 35.028790 -119.975741 287 6490ft 137kts
28-Sep-18 18:35 35.042471 -120.019048 287 6486ft 134kts
28-Sep-18 18:36 35.055900 -120.061673 287 6498ft 135kts
28-Sep-18 18:37 35.069435 -120.104659 287 6501ft 136kts
28-Sep-18 18:38 35.082951 -120.147649 286 6504ft 134kts
28-Sep-18 18:39 35.096353 -120.190380 286 6504ft 135kts
28-Sep-18 18:40 35.109749 -120.233064 286 6504ft 126kts
28-Sep-18 18:41 35.121916 -120.272020 286 6506ft 121kts
28-Sep-18 18:42 35.133886 -120.310350 286 6506ft 120kts
28-Sep-18 18:43 35.145850 -120.348689 286 6507ft 120kts
28-Sep-18 18:44 35.158900 -120.390529 287 5785ft 136kts
28-Sep-18 18:45 35.172393 -120.433772 287 5094ft 131kts
28-Sep-18 18:46 35.185119 -120.474766 288 4389ft 129kts
28-Sep-18 18:47 35.197819 -120.515681 289 3702ft 126kts
28-Sep-18 18:48 35.199631 -120.555941 257 2790ft 115kts
28-Sep-18 18:49 35.205573 -120.587715 310 1285ft 101kts
28-Sep-18 18:50 35.220795 -120.612070 304 539ft 71kts
28-Sep-18 18:51 35.230712 -120.629432 305 345ft 61kts
28-Sep-18 18:52 35.237788 -120.641051 49 215ft 5kts
28-Sep-18 18:53 35.237759 -120.640546 87 215ft 0kts
28-Sep-18 18:54 35.237215 -120.638936 125 215ft 16kts
28-Sep-18 18:55 35.235934 -120.635957 36 215ft 0kts
28-Sep-18 18:56 35.235983 -120.636004 32 215ft 0kts
28-Sep-18 18:57 35.235983 -120.636004 32 215ft 0kts
28-Sep-18 18:58 35.235983 -120.636004 32 215ft 0kts
28-Sep-18 18:59 35.235983 -120.636004 32 215ft 0kts
28-Sep-18 19:00 35.235983 -120.636004 32 215ft 0kts
28-Sep-18 19:01 35.235983 -120.636004 32 215ft 0kts
28-Sep-18 19:02 35.235983 -120.636004 32 215ft 0kts
28-Sep-18 19:03 35.235983 -120.636004 32 215ft 0kts
28-Sep-18 19:04 35.235983 -120.636004 32 215ft 0kts
28-Sep-18 19:05 35.235983 -120.636004 32 215ft 0kts
28-Sep-18 19:06 35.235983 -120.636004 32 215ft 0kts

Navigation Log

Ident Type
1. L88 Airport
2. KSBP Airport